createdAt,value
2018-12-26T00:00:49.723Z,4.47
2018-12-26T00:03:17.639Z,3.97
2018-12-26T00:05:45.613Z,4.27
2018-12-26T00:08:13.742Z,3.83
2018-12-26T00:10:41.602Z,7.10
2018-12-26T00:13:09.478Z,5.80
2018-12-26T00:15:37.470Z,4.43
2018-12-26T00:18:05.358Z,5.63
2018-12-26T00:20:33.338Z,4.57
2018-12-26T00:23:01.315Z,4.87
2018-12-26T00:25:29.238Z,3.70
2018-12-26T00:27:57.188Z,5.53
2018-12-26T00:30:25.210Z,4.30
2018-12-26T00:32:53.127Z,4.70
2018-12-26T00:35:22.918Z,6.10
2018-12-26T00:37:50.996Z,6.63
2018-12-26T00:40:20.822Z,7.27
2018-12-26T00:42:48.722Z,7.37
2018-12-26T00:45:17.258Z,7.83
2018-12-26T00:47:45.998Z,5.40
2018-12-26T00:50:14.478Z,6.20
2018-12-26T00:52:42.642Z,4.20
2018-12-26T00:55:10.758Z,8.03
2018-12-26T00:57:38.661Z,5.13
2018-12-26T01:00:07.300Z,5.27
2018-12-26T01:02:35.261Z,4.90
2018-12-26T01:05:03.424Z,5.30
2018-12-26T01:07:31.398Z,6.67
2018-12-26T01:10:20.603Z,6.80
2018-12-26T01:12:48.471Z,4.80
2018-12-26T01:15:16.401Z,5.83
2018-12-26T01:17:44.861Z,4.07
2018-12-26T01:20:12.807Z,4.83
2018-12-26T01:22:40.723Z,4.47
2018-12-26T01:25:08.619Z,6.87
2018-12-26T01:27:36.590Z,5.00
2018-12-26T01:30:05.113Z,5.50
2018-12-26T01:32:33.406Z,5.00
2018-12-26T01:35:01.271Z,5.40
2018-12-26T01:37:29.753Z,5.23
2018-12-26T01:39:57.807Z,4.67
2018-12-26T01:42:25.698Z,4.87
2018-12-26T01:44:54.253Z,3.77
2018-12-26T01:47:22.220Z,5.23
2018-12-26T01:49:50.132Z,4.40
2018-12-26T01:52:17.995Z,5.90
2018-12-26T01:54:45.863Z,5.67
2018-12-26T01:57:13.797Z,3.60
2018-12-26T01:59:42.182Z,4.30
2018-12-26T02:02:10.253Z,3.70
2018-12-26T02:04:38.157Z,3.87
2018-12-26T02:07:06.539Z,4.60
2018-12-26T02:09:34.583Z,3.90
2018-12-26T02:12:02.619Z,3.37
2018-12-26T02:14:30.527Z,3.40
2018-12-26T02:16:58.428Z,5.87
2018-12-26T02:19:26.606Z,4.50
2018-12-26T02:21:54.559Z,3.20
2018-12-26T02:24:22.486Z,3.73
2018-12-26T02:26:50.451Z,3.63
2018-12-26T02:29:18.312Z,3.33
2018-12-26T02:31:46.385Z,3.80
2018-12-26T02:34:14.345Z,4.73
2018-12-26T02:36:42.244Z,4.27
2018-12-26T02:39:10.180Z,3.53
2018-12-26T02:41:38.169Z,3.33
2018-12-26T02:44:06.101Z,3.47
2018-12-26T02:46:33.983Z,4.27
2018-12-26T02:49:01.958Z,3.43
2018-12-26T02:51:30.092Z,3.33
2018-12-26T02:53:58.204Z,4.33
2018-12-26T02:56:26.172Z,3.20
2018-12-26T02:58:54.268Z,4.37
2018-12-26T03:01:22.428Z,4.10
2018-12-26T03:03:50.333Z,5.03
2018-12-26T03:06:18.352Z,4.07
2018-12-26T03:08:46.260Z,3.73
2018-12-26T03:11:14.254Z,4.93
2018-12-26T03:13:42.378Z,3.80
2018-12-26T03:16:55.637Z,4.60
2018-12-26T03:19:23.555Z,4.20
2018-12-26T03:21:51.834Z,4.40
2018-12-26T03:24:20.227Z,3.47
2018-12-26T03:26:56.055Z,4.27
2018-12-26T03:29:18.067Z,3.10
2018-12-26T03:31:46.070Z,3.97
2018-12-26T03:34:13.974Z,3.20
2018-12-26T03:36:41.848Z,4.17
2018-12-26T03:39:09.839Z,6.37
2018-12-26T03:41:37.943Z,3.87
2018-12-26T03:44:05.847Z,3.70
2018-12-26T03:46:34.893Z,3.73
2018-12-26T03:49:02.747Z,4.20
2018-12-26T03:51:31.051Z,3.53
2018-12-26T03:53:59.092Z,3.27
2018-12-26T03:56:27.360Z,4.57
2018-12-26T03:58:55.511Z,4.33
2018-12-26T04:01:23.539Z,3.83
2018-12-26T04:03:51.596Z,4.60
2018-12-26T04:06:19.526Z,5.37
2018-12-26T04:08:47.466Z,4.43
2018-12-26T04:11:15.530Z,3.77
2018-12-26T04:13:43.487Z,3.37
2018-12-26T04:16:11.517Z,4.93
2018-12-26T04:18:39.601Z,3.20
2018-12-26T04:21:07.658Z,3.50
2018-12-26T04:23:35.703Z,3.97
2018-12-26T04:26:03.692Z,5.80
2018-12-26T04:28:31.664Z,4.13
2018-12-26T04:30:59.673Z,3.60
2018-12-26T04:33:27.554Z,3.57
2018-12-26T04:35:55.476Z,6.70
2018-12-26T04:38:23.482Z,4.00
2018-12-26T04:40:51.351Z,4.17
2018-12-26T04:43:19.317Z,3.90
2018-12-26T04:45:47.380Z,3.37
2018-12-26T04:48:15.323Z,2.70
2018-12-26T04:50:43.226Z,4.10
2018-12-26T04:53:11.055Z,3.97
2018-12-26T04:55:39.014Z,4.50
2018-12-26T04:58:06.959Z,2.83
2018-12-26T05:00:34.923Z,3.80
2018-12-26T05:03:02.985Z,3.27
2018-12-26T05:05:31.070Z,3.20
2018-12-26T05:07:59.028Z,3.33
2018-12-26T05:10:26.908Z,3.70
2018-12-26T05:12:54.958Z,5.77
2018-12-26T05:15:23.167Z,4.47
2018-12-26T05:17:51.231Z,3.33
2018-12-26T05:20:19.401Z,4.80
2018-12-26T05:22:47.258Z,4.27
2018-12-26T05:25:15.303Z,4.80
2018-12-26T05:27:43.229Z,3.90
2018-12-26T05:30:11.143Z,3.50
2018-12-26T05:32:38.951Z,5.67
2018-12-26T05:35:07.440Z,7.57
2018-12-26T05:37:35.442Z,4.00
2018-12-26T05:40:03.839Z,4.63
2018-12-26T05:42:31.702Z,5.00
2018-12-26T05:44:59.611Z,5.07
2018-12-26T05:47:27.505Z,5.43
2018-12-26T05:49:55.387Z,5.80
2018-12-26T05:52:23.332Z,4.30
2018-12-26T05:54:51.242Z,4.60
2018-12-26T05:57:19.150Z,4.17
2018-12-26T05:59:47.116Z,3.87
2018-12-26T06:02:15.055Z,3.80
2018-12-26T06:04:43.008Z,4.27
2018-12-26T06:07:11.015Z,4.23
2018-12-26T06:09:38.946Z,4.20
2018-12-26T06:12:06.911Z,4.47
2018-12-26T06:14:34.875Z,3.50
2018-12-26T06:17:02.922Z,6.67
2018-12-26T06:19:30.795Z,4.13
2018-12-26T06:21:58.718Z,3.67
2018-12-26T06:24:26.590Z,3.93
2018-12-26T06:26:54.502Z,3.97
2018-12-26T06:29:22.486Z,4.73
2018-12-26T06:31:50.510Z,4.60
2018-12-26T06:34:18.479Z,4.17
2018-12-26T06:36:46.432Z,3.97
2018-12-26T06:39:14.291Z,3.97
2018-12-26T06:41:42.193Z,3.63
2018-12-26T06:44:10.026Z,3.27
2018-12-26T06:46:38.269Z,3.60
2018-12-26T06:49:06.203Z,3.30
2018-12-26T06:51:34.187Z,5.20
2018-12-26T06:54:02.171Z,4.53
2018-12-26T06:56:30.119Z,4.83
2018-12-26T06:58:57.986Z,6.03
2018-12-26T07:01:26.054Z,5.20
2018-12-26T07:03:54.031Z,4.63
2018-12-26T07:06:22.086Z,5.40
2018-12-26T07:08:49.980Z,4.27
2018-12-26T07:11:18.831Z,4.73
2018-12-26T07:13:46.635Z,5.07
2018-12-26T07:16:14.646Z,4.00
2018-12-26T07:18:42.550Z,4.50
2018-12-26T07:21:10.640Z,4.17
2018-12-26T07:23:38.631Z,4.90
2018-12-26T07:26:06.601Z,6.93
2018-12-26T07:28:34.543Z,7.80
2018-12-26T07:31:02.428Z,8.73
2018-12-26T07:33:30.475Z,8.77
2018-12-26T07:35:58.391Z,10.37
2018-12-26T07:38:26.371Z,9.30
2018-12-26T07:40:54.370Z,6.13
2018-12-26T07:43:22.324Z,5.63
2018-12-26T07:45:50.503Z,7.57
2018-12-26T07:48:18.471Z,7.13
2018-12-26T07:50:46.374Z,6.77
2018-12-26T07:53:14.283Z,9.60
2018-12-26T07:55:42.149Z,5.80
2018-12-26T07:58:17.392Z,9.43
2018-12-26T08:00:39.900Z,7.70
2018-12-26T08:03:07.854Z,10.80
2018-12-26T08:05:35.726Z,9.23
2018-12-26T08:08:03.690Z,9.33
2018-12-26T08:10:31.552Z,9.53
2018-12-26T08:12:59.687Z,12.57
2018-12-26T08:15:27.659Z,9.70
2018-12-26T08:17:55.566Z,14.30
2018-12-26T08:20:23.876Z,12.27
2018-12-26T08:22:51.803Z,12.80
2018-12-26T08:25:21.534Z,13.57
2018-12-26T08:27:49.432Z,13.60
2018-12-26T08:30:17.361Z,10.17
2018-12-26T08:32:45.249Z,11.40
2018-12-26T08:35:13.231Z,11.53
2018-12-26T08:37:41.284Z,11.13
2018-12-26T08:40:09.197Z,11.17
2018-12-26T08:42:37.127Z,10.83
2018-12-26T08:45:05.358Z,10.10
2018-12-26T08:47:33.291Z,11.20
2018-12-26T08:50:01.284Z,12.23
2018-12-26T08:52:29.245Z,14.77
2018-12-26T08:54:57.050Z,15.87
2018-12-26T08:57:25.015Z,13.23
2018-12-26T08:59:52.994Z,15.43
2018-12-26T09:02:20.930Z,16.50
2018-12-26T09:04:48.799Z,21.73
2018-12-26T09:07:16.792Z,25.23
2018-12-26T09:09:44.815Z,25.00
2018-12-26T09:12:12.801Z,15.43
2018-12-26T09:14:59.481Z,10.67
2018-12-26T09:17:27.389Z,11.33
2018-12-26T09:19:55.243Z,9.20
2018-12-26T09:22:23.179Z,12.20
2018-12-26T09:24:51.064Z,18.03
2018-12-26T09:27:19.026Z,14.03
2018-12-26T09:29:47.317Z,14.73
2018-12-26T09:32:15.626Z,12.20
2018-12-26T09:34:43.615Z,14.40
2018-12-26T09:37:11.569Z,11.47
2018-12-26T09:39:39.468Z,13.90
2018-12-26T09:42:07.472Z,12.87
2018-12-26T09:44:35.338Z,11.77
2018-12-26T09:47:03.512Z,11.07
2018-12-26T09:49:31.533Z,11.53
2018-12-26T09:51:59.446Z,11.97
2018-12-26T09:54:27.373Z,11.50
2018-12-26T09:56:55.330Z,14.37
2018-12-26T09:59:23.483Z,16.07
2018-12-26T10:01:51.404Z,12.70
2018-12-26T10:04:19.360Z,14.83
2018-12-26T10:06:47.424Z,12.97
2018-12-26T10:09:15.367Z,13.30
2018-12-26T10:11:43.312Z,13.20
2018-12-26T10:14:13.586Z,17.23
2018-12-26T10:16:41.448Z,15.07
2018-12-26T10:19:09.343Z,15.17
2018-12-26T10:21:37.360Z,18.10
2018-12-26T10:24:05.491Z,19.07
2018-12-26T10:26:33.397Z,18.20
2018-12-26T10:29:01.328Z,13.07
2018-12-26T10:31:29.264Z,13.63
2018-12-26T10:33:57.238Z,12.40
2018-12-26T10:36:25.283Z,14.20
2018-12-26T10:38:53.151Z,13.07
2018-12-26T10:41:21.063Z,15.30
2018-12-26T10:43:49.060Z,16.80
2018-12-26T10:46:17.107Z,18.83
2018-12-26T10:48:45.043Z,21.90
2018-12-26T10:51:12.943Z,18.80
2018-12-26T10:53:40.834Z,22.00
2018-12-26T10:56:08.803Z,53.73
2018-12-26T10:58:36.811Z,28.50
2018-12-26T11:01:04.878Z,16.47
2018-12-26T11:03:32.851Z,16.20
2018-12-26T11:06:00.826Z,14.93
2018-12-26T11:08:28.742Z,16.97
2018-12-26T11:10:56.616Z,21.77
2018-12-26T11:13:24.610Z,13.90
2018-12-26T11:15:52.613Z,16.57
2018-12-26T11:18:20.917Z,21.17
2018-12-26T11:20:49.033Z,25.57
2018-12-26T11:23:16.953Z,18.37
2018-12-26T11:25:44.807Z,14.17
2018-12-26T11:28:13.119Z,12.07
2018-12-26T11:30:41.524Z,12.37
2018-12-26T11:33:09.761Z,12.17
2018-12-26T11:35:38.004Z,12.50
2018-12-26T11:38:06.425Z,11.50
2018-12-26T11:40:34.684Z,11.33
2018-12-26T11:43:03.103Z,15.70
2018-12-26T11:45:31.875Z,11.83
2018-12-26T11:48:00.269Z,11.77
2018-12-26T11:50:28.489Z,12.03
2018-12-26T11:52:56.729Z,11.50
2018-12-26T11:55:25.239Z,10.60
2018-12-26T11:57:53.450Z,10.87
2018-12-26T12:00:23.252Z,10.33
2018-12-26T12:02:53.373Z,10.80
2018-12-26T12:05:22.363Z,9.90
2018-12-26T12:07:50.423Z,10.57
2018-12-26T12:10:18.428Z,8.97
2018-12-26T12:12:46.451Z,9.17
2018-12-26T12:15:37.024Z,8.63
2018-12-26T12:18:04.939Z,9.67
2018-12-26T12:20:32.907Z,8.30
2018-12-26T12:23:01.123Z,9.17
2018-12-26T12:25:29.055Z,9.03
2018-12-26T12:27:56.950Z,8.50
2018-12-26T12:30:26.083Z,9.40
2018-12-26T12:32:53.985Z,9.90
2018-12-26T12:35:23.049Z,10.20
2018-12-26T12:37:51.118Z,11.07
2018-12-26T12:40:19.384Z,10.60
2018-12-26T12:42:47.509Z,12.47
2018-12-26T12:45:15.475Z,8.97
2018-12-26T12:47:43.394Z,8.93
2018-12-26T12:50:11.467Z,9.47
2018-12-26T12:52:39.527Z,8.27
2018-12-26T12:55:07.490Z,8.57
2018-12-26T12:57:35.318Z,8.10
2018-12-26T13:00:03.454Z,10.97
2018-12-26T13:02:31.717Z,8.77
2018-12-26T13:04:59.859Z,9.10
2018-12-26T13:07:27.823Z,9.30
2018-12-26T13:09:55.859Z,8.70
2018-12-26T13:12:23.879Z,9.23
2018-12-26T13:15:18.144Z,12.47
2018-12-26T13:17:45.811Z,10.20
2018-12-26T13:20:13.744Z,8.73
2018-12-26T13:22:41.666Z,8.80
2018-12-26T13:25:09.608Z,8.43
2018-12-26T13:27:37.613Z,7.47
2018-12-26T13:30:07.330Z,7.73
2018-12-26T13:32:35.398Z,7.37
2018-12-26T13:35:03.230Z,8.67
2018-12-26T13:37:40.091Z,7.50
2018-12-26T13:40:08.112Z,6.93
2018-12-26T13:42:36.050Z,10.00
2018-12-26T13:45:04.226Z,9.80
2018-12-26T13:47:32.526Z,6.87
2018-12-26T13:50:00.723Z,6.50
2018-12-26T13:52:28.806Z,7.50
2018-12-26T13:54:56.943Z,6.10
2018-12-26T13:57:25.084Z,6.67
2018-12-26T13:59:53.036Z,8.97
2018-12-26T14:02:21.043Z,6.80
2018-12-26T14:04:48.912Z,7.00
2018-12-26T14:07:16.864Z,5.87
2018-12-26T14:09:44.792Z,5.97
2018-12-26T14:12:12.684Z,5.23
2018-12-26T14:15:08.862Z,5.57
2018-12-26T14:17:36.605Z,5.93
2018-12-26T14:20:04.707Z,5.30
2018-12-26T14:22:32.646Z,5.30
2018-12-26T14:25:00.852Z,7.93
2018-12-26T14:27:29.435Z,5.17
2018-12-26T14:29:57.980Z,5.67
2018-12-26T14:32:26.018Z,5.67
2018-12-26T14:34:53.922Z,6.23
2018-12-26T14:37:21.812Z,7.30
2018-12-26T14:39:49.763Z,24.63
2018-12-26T14:42:17.706Z,40.47
2018-12-26T14:44:45.544Z,25.30
2018-12-26T14:47:13.419Z,13.47
2018-12-26T14:49:41.492Z,8.47
2018-12-26T14:52:09.407Z,6.57
2018-12-26T14:54:37.459Z,20.30
2018-12-26T14:57:05.487Z,40.33
2018-12-26T14:59:33.592Z,52.20
2018-12-26T15:02:01.483Z,43.40
2018-12-26T15:04:29.967Z,32.50
2018-12-26T15:06:57.810Z,25.07
2018-12-26T15:09:25.864Z,29.50
2018-12-26T15:11:53.736Z,35.60
2018-12-26T15:14:38.687Z,49.47
2018-12-26T15:17:06.665Z,79.90
2018-12-26T15:19:34.993Z,105.63
2018-12-26T15:22:02.843Z,111.57
2018-12-26T15:24:30.694Z,96.13
2018-12-26T15:26:58.581Z,89.70
2018-12-26T15:29:26.491Z,86.17
2018-12-26T15:31:54.418Z,91.60
2018-12-26T15:34:22.588Z,99.50
2018-12-26T15:36:50.507Z,104.50
2018-12-26T15:39:18.514Z,85.13
2018-12-26T15:41:46.557Z,67.20
2018-12-26T15:44:14.767Z,54.23
2018-12-26T15:46:42.628Z,38.63
2018-12-26T15:49:10.803Z,33.40
2018-12-26T15:51:38.860Z,28.97
2018-12-26T15:54:06.796Z,39.20
2018-12-26T15:56:34.778Z,48.63
2018-12-26T15:59:02.748Z,50.17
2018-12-26T16:01:30.682Z,49.10
2018-12-26T16:03:58.613Z,48.80
2018-12-26T16:06:27.083Z,46.17
2018-12-26T16:08:55.108Z,40.17
2018-12-26T16:11:24.770Z,44.00
2018-12-26T16:13:52.894Z,40.47
2018-12-26T16:16:26.828Z,37.53
2018-12-26T16:18:54.799Z,35.80
2018-12-26T16:21:22.656Z,37.17
2018-12-26T16:23:50.603Z,38.27
2018-12-26T16:26:18.575Z,37.30
2018-12-26T16:28:46.522Z,42.57
2018-12-26T16:31:14.380Z,44.60
2018-12-26T16:33:42.754Z,38.83
2018-12-26T16:36:12.918Z,40.77
2018-12-26T16:38:40.407Z,37.23
2018-12-26T16:41:08.319Z,33.83
2018-12-26T16:43:36.372Z,35.00
2018-12-26T16:46:04.354Z,37.20
2018-12-26T16:48:32.258Z,34.63
2018-12-26T16:51:00.315Z,30.00
2018-12-26T16:53:28.243Z,29.60
2018-12-26T16:55:56.227Z,29.07
2018-12-26T16:58:24.152Z,34.13
2018-12-26T17:00:55.122Z,33.20
2018-12-26T17:03:21.832Z,29.27
2018-12-26T17:05:49.799Z,35.00
2018-12-26T17:08:17.719Z,27.50
2018-12-26T17:10:45.591Z,31.13
2018-12-26T17:13:13.476Z,31.30
2018-12-26T17:16:00.373Z,28.50
2018-12-26T17:18:28.582Z,23.13
2018-12-26T17:20:56.661Z,24.37
2018-12-26T17:23:24.964Z,24.83
2018-12-26T17:25:53.203Z,24.33
2018-12-26T17:28:21.129Z,26.23
2018-12-26T17:30:49.190Z,28.73
2018-12-26T17:33:17.053Z,34.17
2018-12-26T17:35:44.971Z,35.43
2018-12-26T17:38:12.898Z,36.20
2018-12-26T17:40:40.836Z,37.77
2018-12-26T17:43:08.972Z,37.83
2018-12-26T17:45:36.912Z,32.50
2018-12-26T17:48:04.871Z,33.17
2018-12-26T17:50:46.734Z,36.57
2018-12-26T17:53:23.648Z,38.43
2018-12-26T17:55:58.707Z,34.60
2018-12-26T17:58:28.892Z,31.53
2018-12-26T18:01:23.958Z,28.63
2018-12-26T18:03:51.893Z,25.90
2018-12-26T18:06:19.815Z,24.57
2018-12-26T18:08:47.642Z,25.20
2018-12-26T18:11:20.301Z,22.57
2018-12-26T18:13:48.762Z,21.53
2018-12-26T18:16:33.219Z,23.50
2018-12-26T18:19:01.311Z,25.10
2018-12-26T18:21:29.295Z,24.07
2018-12-26T18:24:16.895Z,22.73
2018-12-26T18:26:45.274Z,21.70
2018-12-26T18:29:13.235Z,20.33
2018-12-26T18:31:41.135Z,23.17
2018-12-26T18:34:09.039Z,28.13
2018-12-26T18:36:37.633Z,38.07
2018-12-26T18:39:06.772Z,47.30
2018-12-26T18:41:34.658Z,37.00
2018-12-26T18:44:02.637Z,27.43
2018-12-26T18:46:30.697Z,40.83
2018-12-26T18:48:58.632Z,55.00
2018-12-26T18:51:26.560Z,48.30
2018-12-26T18:53:54.457Z,51.33
2018-12-26T18:56:22.302Z,59.27
2018-12-26T18:58:50.411Z,37.53
2018-12-26T19:01:18.279Z,20.80
2018-12-26T19:03:46.330Z,16.10
2018-12-26T19:06:14.350Z,16.30
2018-12-26T19:08:42.267Z,16.13
2018-12-26T19:11:11.479Z,13.67
2018-12-26T19:13:39.513Z,13.80
2018-12-26T19:16:32.995Z,12.63
2018-12-26T19:19:00.849Z,14.87
2018-12-26T19:21:28.744Z,14.17
2018-12-26T19:23:56.602Z,16.93
2018-12-26T19:26:24.692Z,17.10
2018-12-26T19:28:52.600Z,15.80
2018-12-26T19:31:20.956Z,17.10
2018-12-26T19:34:08.498Z,17.93
2018-12-26T19:36:36.880Z,18.13
2018-12-26T19:39:06.765Z,22.27
2018-12-26T19:41:34.707Z,19.53
2018-12-26T19:44:02.779Z,20.63
2018-12-26T19:46:31.124Z,20.70
2018-12-26T19:48:59.460Z,19.20
2018-12-26T19:51:27.383Z,18.17
2018-12-26T19:53:55.360Z,22.93
2018-12-26T19:56:23.236Z,21.27
2018-12-26T19:58:51.145Z,26.67
2018-12-26T20:01:19.296Z,27.70
2018-12-26T20:03:47.240Z,26.13
2018-12-26T20:06:15.235Z,27.37
2018-12-26T20:08:43.171Z,32.23
2018-12-26T20:11:18.443Z,32.93
2018-12-26T20:13:46.279Z,31.80
2018-12-26T20:16:33.382Z,23.53
2018-12-26T20:19:01.738Z,19.57
2018-12-26T20:21:29.671Z,19.70
2018-12-26T20:23:57.543Z,21.63
2018-12-26T20:26:25.485Z,25.47
2018-12-26T20:28:53.463Z,28.70
2018-12-26T20:31:21.423Z,26.17
2018-12-26T20:33:49.438Z,24.27
2018-12-26T20:36:17.496Z,21.97
2018-12-26T20:38:45.570Z,20.13
2018-12-26T20:41:13.574Z,17.80
2018-12-26T20:43:42.434Z,15.10
2018-12-26T20:46:10.338Z,16.63
2018-12-26T20:48:38.259Z,15.27
2018-12-26T20:51:06.152Z,17.13
2018-12-26T20:53:34.031Z,16.03
2018-12-26T20:56:01.882Z,20.83
2018-12-26T20:58:29.956Z,19.17
2018-12-26T21:00:57.975Z,15.30
2018-12-26T21:03:26.398Z,15.57
2018-12-26T21:05:54.800Z,16.50
2018-12-26T21:08:22.708Z,14.80
2018-12-26T21:10:50.619Z,11.60
2018-12-26T21:13:18.848Z,13.57
2018-12-26T21:16:11.207Z,12.13
2018-12-26T21:18:39.067Z,16.90
2018-12-26T21:21:07.047Z,18.33
2018-12-26T21:23:34.979Z,19.33
2018-12-26T21:26:17.260Z,19.10
2018-12-26T21:28:45.122Z,15.17
2018-12-26T21:31:13.051Z,15.80
2018-12-26T21:33:40.994Z,15.07
2018-12-26T21:36:09.048Z,12.13
2018-12-26T21:38:37.008Z,12.50
2018-12-26T21:41:04.881Z,13.10
2018-12-26T21:43:32.787Z,10.93
2018-12-26T21:46:00.796Z,9.97
2018-12-26T21:48:28.724Z,11.00
2018-12-26T21:50:56.685Z,14.27
2018-12-26T21:53:24.766Z,16.17
2018-12-26T21:55:53.771Z,19.53
2018-12-26T21:58:21.681Z,18.43
2018-12-26T22:00:49.635Z,16.17
2018-12-26T22:03:17.502Z,12.83
2018-12-26T22:05:45.386Z,14.43
2018-12-26T22:08:15.786Z,12.17
2018-12-26T22:10:43.840Z,12.50
2018-12-26T22:13:11.956Z,8.03
2018-12-26T22:16:22.669Z,11.03
2018-12-26T22:18:49.069Z,15.00
2018-12-26T22:21:17.338Z,11.03
2018-12-26T22:23:45.234Z,11.03
2018-12-26T22:26:13.222Z,11.57
2018-12-26T22:28:41.242Z,13.47
2018-12-26T22:31:09.194Z,11.53
2018-12-26T22:33:37.052Z,11.17
2018-12-26T22:36:04.980Z,15.10
2018-12-26T22:38:32.915Z,11.33
2018-12-26T22:41:00.870Z,12.80
2018-12-26T22:43:28.887Z,16.97
2018-12-26T22:45:56.840Z,16.70
2018-12-26T22:48:24.784Z,11.27
2018-12-26T22:50:52.698Z,13.13
2018-12-26T22:53:20.700Z,10.37
2018-12-26T22:55:48.669Z,9.87
2018-12-26T22:58:16.637Z,11.03
2018-12-26T23:00:45.839Z,9.57
2018-12-26T23:03:13.923Z,9.50
2018-12-26T23:05:42.275Z,11.03
2018-12-26T23:08:10.222Z,11.63
2018-12-26T23:10:38.083Z,9.53
2018-12-26T23:13:06.065Z,7.47
2018-12-26T23:15:33.938Z,8.70
2018-12-26T23:18:01.908Z,10.47
2018-12-26T23:20:35.552Z,7.33
2018-12-26T23:23:03.559Z,7.90
2018-12-26T23:25:31.374Z,9.50
2018-12-26T23:27:59.318Z,11.50
2018-12-26T23:30:27.319Z,10.17
2018-12-26T23:32:55.241Z,10.53
2018-12-26T23:35:24.999Z,9.60
2018-12-26T23:37:52.868Z,11.77
2018-12-26T23:40:22.731Z,12.37
2018-12-26T23:42:50.726Z,13.63
2018-12-26T23:45:18.659Z,12.27
2018-12-26T23:47:46.650Z,16.40
2018-12-26T23:50:14.607Z,16.00
2018-12-26T23:52:42.666Z,17.13
2018-12-26T23:55:10.643Z,16.57
2018-12-26T23:57:38.562Z,14.70
